createdAt,value
2022-10-20T00:00:17.000Z,276.46
2022-10-20T00:02:23.000Z,276.4
2022-10-20T00:03:50.000Z,276.4
2022-10-20T00:05:56.000Z,276.4
2022-10-20T00:07:22.000Z,276.34
2022-10-20T00:09:28.000Z,276.34
2022-10-20T00:10:55.000Z,276.34
2022-10-20T00:13:01.000Z,276.34
2022-10-20T00:14:28.000Z,276.34
2022-10-20T00:16:34.000Z,276.21
2022-10-20T00:19:25.000Z,276.21
2022-10-20T00:20:51.000Z,276.21
2022-10-20T00:22:57.000Z,276.27
2022-10-20T00:24:24.000Z,276.34
2022-10-20T00:26:30.000Z,276.27
2022-10-20T00:27:56.000Z,276.21
2022-10-20T00:30:02.000Z,276.27
2022-10-20T00:31:29.000Z,276.34
2022-10-20T00:33:35.000Z,276.27
2022-10-20T00:35:02.000Z,276.27
2022-10-20T00:37:08.000Z,276.27
2022-10-20T00:38:35.000Z,276.21
2022-10-20T00:40:41.000Z,276.21
2022-10-20T00:42:07.000Z,276.27
2022-10-20T00:44:13.000Z,276.34
2022-10-20T00:45:40.000Z,276.34
2022-10-20T00:47:46.000Z,276.4
2022-10-20T00:49:13.000Z,276.4
2022-10-20T00:51:19.000Z,276.34
2022-10-20T00:52:45.000Z,276.34
2022-10-20T00:54:51.000Z,276.4
2022-10-20T00:57:43.000Z,276.4
2022-10-20T00:59:09.000Z,276.34
2022-10-20T01:01:15.000Z,276.4
2022-10-20T01:02:42.000Z,276.34
2022-10-20T01:04:48.000Z,276.4
2022-10-20T01:08:21.000Z,276.46
2022-10-20T01:09:47.000Z,276.52
2022-10-20T01:11:53.000Z,276.59
2022-10-20T01:13:20.000Z,276.65
2022-10-20T01:15:26.000Z,276.71
2022-10-20T01:16:52.000Z,276.77
2022-10-20T01:18:58.000Z,276.84
2022-10-20T01:20:25.000Z,276.84
2022-10-20T01:22:31.000Z,276.9
2022-10-20T01:23:58.000Z,276.96
2022-10-20T01:26:04.000Z,276.96
2022-10-20T01:27:30.000Z,277.02
2022-10-20T01:29:37.000Z,277.02
2022-10-20T01:31:04.000Z,277.09
2022-10-20T01:33:10.000Z,277.21
2022-10-20T01:36:01.000Z,277.27
2022-10-20T01:37:27.000Z,277.27
2022-10-20T01:39:53.000Z,277.27
2022-10-20T01:41:19.000Z,277.34
2022-10-20T01:43:25.000Z,277.34
2022-10-20T01:44:52.000Z,277.4
2022-10-20T01:46:58.000Z,277.34
2022-10-20T01:48:24.000Z,277.34
2022-10-20T01:50:30.000Z,277.4
2022-10-20T01:51:57.000Z,277.4
2022-10-20T01:54:03.000Z,277.46
2022-10-20T01:55:30.000Z,277.46
2022-10-20T01:57:36.000Z,277.46
2022-10-20T01:59:02.000Z,277.52
2022-10-20T02:01:08.000Z,277.59
2022-10-20T02:02:35.000Z,277.59
2022-10-20T02:04:42.000Z,277.65
2022-10-20T02:06:08.000Z,277.65
2022-10-20T02:08:14.000Z,277.65
2022-10-20T02:09:41.000Z,277.71
2022-10-20T02:11:47.000Z,277.71
2022-10-20T02:14:38.000Z,277.59
2022-10-20T02:16:05.000Z,277.59
2022-10-20T02:18:11.000Z,277.59
2022-10-20T02:19:37.000Z,277.59
2022-10-20T02:21:43.000Z,277.59
2022-10-20T02:23:10.000Z,277.59
2022-10-20T02:25:16.000Z,277.59
2022-10-20T02:26:43.000Z,277.52
2022-10-20T02:28:49.000Z,277.52
2022-10-20T02:30:15.000Z,277.46
2022-10-20T02:32:21.000Z,277.46
2022-10-20T02:33:48.000Z,277.46
2022-10-20T02:35:54.000Z,277.46
2022-10-20T02:37:20.000Z,277.46
2022-10-20T02:39:26.000Z,277.46
2022-10-20T02:40:53.000Z,277.52
2022-10-20T02:42:59.000Z,277.4
2022-10-20T02:44:25.000Z,277.4
2022-10-20T02:46:32.000Z,277.46
2022-10-20T02:47:58.000Z,277.52
2022-10-20T02:50:04.000Z,277.71
2022-10-20T02:52:55.000Z,277.65
2022-10-20T02:54:22.000Z,277.65
2022-10-20T02:56:28.000Z,277.84
2022-10-20T02:57:55.000Z,277.84
2022-10-20T03:00:01.000Z,277.77
2022-10-20T03:01:28.000Z,277.84
2022-10-20T03:03:34.000Z,277.71
2022-10-20T03:05:01.000Z,277.65
2022-10-20T03:07:07.000Z,277.59
2022-10-20T03:08:33.000Z,277.52
2022-10-20T03:10:39.000Z,277.59
2022-10-20T03:12:06.000Z,277.65
2022-10-20T03:14:12.000Z,277.71
2022-10-20T03:15:38.000Z,277.71
2022-10-20T03:17:44.000Z,277.59
2022-10-20T03:19:11.000Z,277.65
2022-10-20T03:21:17.000Z,277.52
2022-10-20T03:22:44.000Z,277.34
2022-10-20T03:24:50.000Z,277.21
2022-10-20T03:26:16.000Z,277.21
2022-10-20T03:28:22.000Z,277.09
2022-10-20T03:31:13.000Z,277.09
2022-10-20T03:32:40.000Z,277.09
2022-10-20T03:34:46.000Z,276.9
2022-10-20T03:36:12.000Z,276.9
2022-10-20T03:38:19.000Z,276.96
2022-10-20T03:39:45.000Z,276.9
2022-10-20T03:41:51.000Z,276.9
2022-10-20T03:43:18.000Z,276.96
2022-10-20T03:45:24.000Z,277.02
2022-10-20T03:46:50.000Z,277.09
2022-10-20T03:48:56.000Z,277.15
2022-10-20T03:50:23.000Z,277.27
2022-10-20T03:52:29.000Z,277.21
2022-10-20T03:53:55.000Z,277.09
2022-10-20T03:56:01.000Z,276.9
2022-10-20T03:57:28.000Z,276.9
2022-10-20T03:59:34.000Z,276.84
2022-10-20T04:01:00.000Z,276.84
2022-10-20T04:03:07.000Z,276.84
2022-10-20T04:04:33.000Z,276.9
2022-10-20T04:06:39.000Z,276.84
2022-10-20T04:09:30.000Z,276.71
2022-10-20T04:10:57.000Z,276.77
2022-10-20T04:13:03.000Z,276.71
2022-10-20T04:14:29.000Z,276.71
2022-10-20T04:16:35.000Z,276.71
2022-10-20T04:18:02.000Z,276.77
2022-10-20T04:20:08.000Z,276.77
2022-10-20T04:21:34.000Z,276.9
2022-10-20T04:23:41.000Z,276.9
2022-10-20T04:25:07.000Z,276.84
2022-10-20T04:27:13.000Z,276.59
2022-10-20T04:28:40.000Z,276.59
2022-10-20T04:30:46.000Z,276.59
2022-10-20T04:32:12.000Z,276.59
2022-10-20T04:34:19.000Z,276.34
2022-10-20T04:35:45.000Z,276.34
2022-10-20T04:37:51.000Z,276.34
2022-10-20T04:39:18.000Z,276.27
2022-10-20T04:41:24.000Z,276.34
2022-10-20T04:42:51.000Z,276.34
2022-10-20T04:44:57.000Z,276.34
2022-10-20T04:47:48.000Z,276.34
2022-10-20T04:49:15.000Z,276.34
2022-10-20T04:51:21.000Z,276.27
2022-10-20T04:52:47.000Z,276.21
2022-10-20T04:54:53.000Z,276.15
2022-10-20T04:56:20.000Z,276.15
2022-10-20T04:58:26.000Z,276.09
2022-10-20T04:59:52.000Z,276.09
2022-10-20T05:01:58.000Z,276.09
2022-10-20T05:03:25.000Z,276.21
2022-10-20T05:05:31.000Z,276.09
2022-10-20T05:06:58.000Z,276.02
2022-10-20T05:09:04.000Z,276.09
2022-10-20T05:10:30.000Z,276.15
2022-10-20T05:12:40.000Z,276.27
2022-10-20T05:14:07.000Z,276.4
2022-10-20T05:16:13.000Z,276.4
2022-10-20T05:17:39.000Z,276.34
2022-10-20T05:19:45.000Z,276.34
2022-10-20T05:21:12.000Z,276.27
2022-10-20T05:23:18.000Z,276.09
2022-10-20T05:26:09.000Z,276.09
2022-10-20T05:27:36.000Z,276.02
2022-10-20T05:29:42.000Z,275.9
2022-10-20T05:31:08.000Z,275.9
2022-10-20T05:33:14.000Z,275.84
2022-10-20T05:34:41.000Z,275.84
2022-10-20T05:36:47.000Z,275.71
2022-10-20T05:38:13.000Z,275.77
2022-10-20T05:40:20.000Z,275.96
2022-10-20T05:41:46.000Z,275.96
2022-10-20T05:43:52.000Z,275.9
2022-10-20T05:45:19.000Z,275.84
2022-10-20T05:47:25.000Z,275.65
2022-10-20T05:48:51.000Z,275.65
2022-10-20T05:50:57.000Z,275.71
2022-10-20T05:52:24.000Z,275.77
2022-10-20T05:54:30.000Z,275.84
2022-10-20T05:55:57.000Z,275.9
2022-10-20T05:58:03.000Z,275.96
2022-10-20T05:59:29.000Z,276.02
2022-10-20T06:01:35.000Z,275.96
2022-10-20T06:04:26.000Z,275.9
2022-10-20T06:05:52.000Z,275.96
2022-10-20T06:07:59.000Z,275.84
2022-10-20T06:09:25.000Z,275.9
2022-10-20T06:11:31.000Z,275.84
2022-10-20T06:13:03.000Z,275.96
2022-10-20T06:15:09.000Z,276.02
2022-10-20T06:16:36.000Z,275.96
2022-10-20T06:18:42.000Z,276.09
2022-10-20T06:20:09.000Z,276.15
2022-10-20T06:22:15.000Z,276.15
2022-10-20T06:23:41.000Z,276.15
2022-10-20T06:25:47.000Z,276.15
2022-10-20T06:27:14.000Z,276.21
2022-10-20T06:29:20.000Z,276.15
2022-10-20T06:30:47.000Z,276.09
2022-10-20T06:32:53.000Z,276.21
2022-10-20T06:34:19.000Z,276.21
2022-10-20T06:36:26.000Z,276.21
2022-10-20T06:37:52.000Z,276.21
2022-10-20T06:39:58.000Z,276.15
2022-10-20T06:42:49.000Z,276.21
2022-10-20T06:44:16.000Z,276.15
2022-10-20T06:46:22.000Z,276.21
2022-10-20T06:47:49.000Z,276.15
2022-10-20T06:49:55.000Z,276.21
2022-10-20T06:51:21.000Z,276.27
2022-10-20T06:53:27.000Z,276.34
2022-10-20T06:54:54.000Z,276.34
2022-10-20T06:57:00.000Z,276.4
2022-10-20T06:58:26.000Z,276.52
2022-10-20T07:00:33.000Z,276.59
2022-10-20T07:01:59.000Z,276.65
2022-10-20T07:04:05.000Z,276.65
2022-10-20T07:05:32.000Z,276.65
2022-10-20T07:07:38.000Z,276.71
2022-10-20T07:09:05.000Z,276.77
2022-10-20T07:11:11.000Z,276.71
2022-10-20T07:12:37.000Z,276.71
2022-10-20T07:14:43.000Z,276.77
2022-10-20T07:16:10.000Z,276.84
2022-10-20T07:18:16.000Z,276.84
2022-10-20T07:21:07.000Z,276.9
2022-10-20T07:22:33.000Z,276.96
2022-10-20T07:24:40.000Z,277.02
2022-10-20T07:26:06.000Z,277.15
2022-10-20T07:28:12.000Z,277.09
2022-10-20T07:29:39.000Z,277.15
2022-10-20T07:31:45.000Z,277.21
2022-10-20T07:33:12.000Z,277.34
2022-10-20T07:35:18.000Z,277.71
2022-10-20T07:36:44.000Z,277.84
2022-10-20T07:38:50.000Z,278.02
2022-10-20T07:40:17.000Z,278.15
2022-10-20T07:42:23.000Z,278.15
2022-10-20T07:43:50.000Z,278.21
2022-10-20T07:45:56.000Z,278.02
2022-10-20T07:47:22.000Z,278.09
2022-10-20T07:49:28.000Z,278.09
2022-10-20T07:51:09.000Z,278.27
2022-10-20T07:53:15.000Z,278.34
2022-10-20T07:54:42.000Z,278.46
2022-10-20T07:56:48.000Z,278.52
2022-10-20T07:59:39.000Z,278.77
2022-10-20T08:01:06.000Z,278.77
2022-10-20T08:03:12.000Z,278.96
2022-10-20T08:04:38.000Z,279.02
2022-10-20T08:06:45.000Z,279.09
2022-10-20T08:08:11.000Z,279.15
2022-10-20T08:10:17.000Z,279.15
2022-10-20T08:11:44.000Z,279.21
2022-10-20T08:13:50.000Z,279.15
2022-10-20T08:15:16.000Z,279.09
2022-10-20T08:17:22.000Z,279.21
2022-10-20T08:18:49.000Z,279.27
2022-10-20T08:20:57.000Z,279.34
2022-10-20T08:22:24.000Z,279.34
2022-10-20T08:24:30.000Z,279.46
2022-10-20T08:25:56.000Z,279.4
2022-10-20T08:28:02.000Z,279.4
2022-10-20T08:29:29.000Z,279.27
2022-10-20T08:31:35.000Z,279.15
2022-10-20T08:33:02.000Z,279.34
2022-10-20T08:35:08.000Z,279.46
2022-10-20T08:37:59.000Z,279.77
2022-10-20T08:39:25.000Z,279.77
2022-10-20T08:41:32.000Z,279.9
2022-10-20T08:43:19.000Z,279.96
2022-10-20T08:45:25.000Z,279.96
2022-10-20T08:46:52.000Z,279.9
2022-10-20T08:48:58.000Z,280.09
2022-10-20T08:50:24.000Z,280.21
2022-10-20T08:52:30.000Z,280.21
2022-10-20T08:53:57.000Z,280.34
2022-10-20T08:56:03.000Z,280.52
2022-10-20T08:57:29.000Z,280.59
2022-10-20T08:59:40.000Z,280.71
2022-10-20T09:01:06.000Z,280.77
2022-10-20T09:03:12.000Z,280.84
2022-10-20T09:06:45.000Z,280.96
2022-10-20T09:08:12.000Z,281.02
2022-10-20T09:10:18.000Z,281.09
2022-10-20T09:11:44.000Z,281.15
2022-10-20T09:13:50.000Z,281.21
2022-10-20T09:16:42.000Z,281.27
2022-10-20T09:18:24.000Z,281.34
2022-10-20T09:20:30.000Z,281.4
2022-10-20T09:21:57.000Z,281.4
2022-10-20T09:24:03.000Z,281.4
2022-10-20T09:25:29.000Z,281.46
2022-10-20T09:27:35.000Z,281.59
2022-10-20T09:29:02.000Z,281.59
2022-10-20T09:31:17.000Z,281.71
2022-10-20T09:32:44.000Z,281.84
2022-10-20T09:34:52.000Z,281.9
2022-10-20T09:36:18.000Z,281.9
2022-10-20T09:38:24.000Z,282.02
2022-10-20T09:39:51.000Z,282.02
2022-10-20T09:43:27.000Z,282.09
2022-10-20T09:45:33.000Z,282.15
2022-10-20T09:47:00.000Z,282.27
2022-10-20T09:49:06.000Z,282.34
2022-10-20T09:50:32.000Z,282.4
2022-10-20T09:52:38.000Z,282.46
2022-10-20T09:55:29.000Z,282.52
2022-10-20T09:56:56.000Z,282.65
2022-10-20T09:59:02.000Z,282.71
2022-10-20T10:00:29.000Z,282.77
2022-10-20T10:02:41.000Z,282.9
2022-10-20T10:04:07.000Z,283.02
2022-10-20T10:06:15.000Z,283.09
2022-10-20T10:07:41.000Z,283.21
2022-10-20T10:09:47.000Z,283.27
2022-10-20T10:11:14.000Z,283.4
2022-10-20T10:13:20.000Z,283.46
2022-10-20T10:14:49.000Z,283.52
2022-10-20T10:16:55.000Z,283.65
2022-10-20T10:18:22.000Z,283.71
2022-10-20T10:20:28.000Z,283.77
2022-10-20T10:21:54.000Z,283.9
2022-10-20T10:24:01.000Z,284.02
2022-10-20T10:25:27.000Z,284.21
2022-10-20T10:27:33.000Z,284.27
2022-10-20T10:29:00.000Z,284.59
2022-10-20T10:31:06.000Z,284.59
2022-10-20T10:33:57.000Z,284.77
2022-10-20T10:35:23.000Z,285.09
2022-10-20T10:37:29.000Z,285.21
2022-10-20T10:38:59.000Z,285.34
2022-10-20T10:41:05.000Z,285.34
2022-10-20T10:42:32.000Z,285.4
2022-10-20T10:44:39.000Z,285.4
2022-10-20T10:46:05.000Z,285.27
2022-10-20T10:48:11.000Z,285.15
2022-10-20T10:49:38.000Z,285.15
2022-10-20T10:51:44.000Z,285.09
2022-10-20T10:53:10.000Z,285.02
2022-10-20T10:55:16.000Z,284.9
2022-10-20T10:57:12.000Z,284.9
2022-10-20T10:59:18.000Z,285.02
2022-10-20T11:00:45.000Z,285.15
2022-10-20T11:02:51.000Z,285.02
2022-10-20T11:04:18.000Z,285.15
2022-10-20T11:06:24.000Z,285.09
2022-10-20T11:07:50.000Z,285.02
2022-10-20T11:09:56.000Z,285.09
2022-10-20T11:12:48.000Z,285.09
2022-10-20T11:14:14.000Z,285.02
2022-10-20T11:16:21.000Z,284.96
2022-10-20T11:17:47.000Z,284.96
2022-10-20T11:19:53.000Z,284.96
2022-10-20T11:21:20.000Z,285.02
2022-10-20T11:23:26.000Z,285.02
2022-10-20T11:24:52.000Z,284.96
2022-10-20T11:26:58.000Z,285.02
2022-10-20T11:28:25.000Z,285.02
2022-10-20T11:30:31.000Z,284.9
2022-10-20T11:31:57.000Z,284.9
2022-10-20T11:34:03.000Z,284.84
2022-10-20T11:35:30.000Z,284.84
2022-10-20T11:37:36.000Z,284.9
2022-10-20T11:39:03.000Z,284.96
2022-10-20T11:41:09.000Z,284.96
2022-10-20T11:42:36.000Z,284.96
2022-10-20T11:44:42.000Z,284.9
2022-10-20T11:46:09.000Z,284.9
2022-10-20T11:48:15.000Z,284.9
2022-10-20T11:51:06.000Z,284.84
2022-10-20T11:52:33.000Z,284.84
2022-10-20T11:54:39.000Z,284.84
2022-10-20T11:56:06.000Z,284.77
2022-10-20T11:58:12.000Z,284.71
2022-10-20T11:59:38.000Z,284.71
2022-10-20T12:01:44.000Z,284.71
2022-10-20T12:03:11.000Z,284.71
2022-10-20T12:05:17.000Z,284.71
2022-10-20T12:06:44.000Z,284.71
2022-10-20T12:08:50.000Z,284.65
2022-10-20T12:10:16.000Z,284.65
2022-10-20T12:12:23.000Z,284.59
2022-10-20T12:13:49.000Z,284.65
2022-10-20T12:15:55.000Z,284.59
2022-10-20T12:17:22.000Z,284.65
2022-10-20T12:19:28.000Z,284.59
2022-10-20T12:20:54.000Z,284.52
2022-10-20T12:23:00.000Z,284.52
2022-10-20T12:24:27.000Z,284.46
2022-10-20T12:26:33.000Z,284.46
2022-10-20T12:29:26.000Z,284.46
2022-10-20T12:30:53.000Z,284.4
2022-10-20T12:32:59.000Z,284.4
2022-10-20T12:34:25.000Z,284.4
2022-10-20T12:36:31.000Z,284.4
2022-10-20T12:37:58.000Z,284.34
2022-10-20T12:40:04.000Z,284.34
2022-10-20T12:41:31.000Z,284.34
2022-10-20T12:43:37.000Z,284.34
2022-10-20T12:45:03.000Z,284.4
2022-10-20T12:47:09.000Z,284.4
2022-10-20T12:48:36.000Z,284.4
2022-10-20T12:50:42.000Z,284.4
2022-10-20T12:52:09.000Z,284.34
2022-10-20T12:54:15.000Z,284.34
2022-10-20T12:55:41.000Z,284.34
2022-10-20T12:57:47.000Z,284.4
2022-10-20T12:59:14.000Z,284.4
2022-10-20T13:01:20.000Z,284.46
2022-10-20T13:02:47.000Z,284.46
2022-10-20T13:04:53.000Z,284.52
2022-10-20T13:07:45.000Z,284.52
2022-10-20T13:09:11.000Z,284.52
2022-10-20T13:11:18.000Z,284.59
2022-10-20T13:12:44.000Z,284.59
2022-10-20T13:14:50.000Z,284.52
2022-10-20T13:16:17.000Z,284.59
2022-10-20T13:18:23.000Z,284.65
2022-10-20T13:19:49.000Z,284.65
2022-10-20T13:21:55.000Z,284.65
2022-10-20T13:23:22.000Z,284.71
2022-10-20T13:25:28.000Z,284.71
2022-10-20T13:26:55.000Z,284.71
2022-10-20T13:29:01.000Z,284.77
2022-10-20T13:30:27.000Z,284.77
2022-10-20T13:32:33.000Z,284.84
2022-10-20T13:34:07.000Z,284.9
2022-10-20T13:37:46.000Z,284.9
2022-10-20T13:38:20.000Z,284.9
2022-10-20T13:39:46.000Z,284.84
2022-10-20T13:41:53.000Z,284.84
2022-10-20T13:43:19.000Z,284.84
2022-10-20T13:45:25.000Z,284.9
2022-10-20T13:48:10.000Z,284.96
2022-10-20T13:49:37.000Z,284.9
2022-10-20T13:51:43.000Z,284.9
2022-10-20T13:53:09.000Z,284.84
2022-10-20T13:55:15.000Z,284.84
2022-10-20T13:56:42.000Z,284.84
2022-10-20T13:58:48.000Z,284.84
2022-10-20T14:00:15.000Z,284.77
2022-10-20T14:02:21.000Z,284.77
2022-10-20T14:03:47.000Z,284.77
2022-10-20T14:05:53.000Z,284.77
2022-10-20T14:07:20.000Z,284.77
2022-10-20T14:09:26.000Z,284.71
2022-10-20T14:10:53.000Z,284.71
2022-10-20T14:12:59.000Z,284.71
2022-10-20T14:14:25.000Z,284.71
2022-10-20T14:16:31.000Z,284.65
2022-10-20T14:17:58.000Z,284.65
2022-10-20T14:20:04.000Z,284.59
2022-10-20T14:21:30.000Z,284.59
2022-10-20T14:23:37.000Z,284.59
2022-10-20T14:26:27.000Z,284.59
2022-10-20T14:27:54.000Z,284.59
2022-10-20T14:30:00.000Z,284.59
2022-10-20T14:31:27.000Z,284.52
2022-10-20T14:33:33.000Z,284.52
2022-10-20T14:34:59.000Z,284.52
2022-10-20T14:37:05.000Z,284.52
2022-10-20T14:38:32.000Z,284.52
2022-10-20T14:40:38.000Z,284.46
2022-10-20T14:42:05.000Z,284.46
2022-10-20T14:44:11.000Z,284.52
2022-10-20T14:45:53.000Z,284.46
2022-10-20T14:48:00.000Z,284.46
2022-10-20T14:49:26.000Z,284.46
2022-10-20T14:51:32.000Z,284.46
2022-10-20T14:52:59.000Z,284.46
2022-10-20T14:55:05.000Z,284.46
2022-10-20T14:56:31.000Z,284.46
2022-10-20T14:58:37.000Z,284.46
2022-10-20T15:00:04.000Z,284.46
2022-10-20T15:02:10.000Z,284.4
2022-10-20T15:05:01.000Z,284.4
2022-10-20T15:06:27.000Z,284.4
2022-10-20T15:08:34.000Z,284.4
2022-10-20T15:10:00.000Z,284.4
2022-10-20T15:12:09.000Z,284.4
2022-10-20T15:13:36.000Z,284.4
2022-10-20T15:15:42.000Z,284.4
2022-10-20T15:17:08.000Z,284.4
2022-10-20T15:19:14.000Z,284.34
2022-10-20T15:20:41.000Z,284.4
2022-10-20T15:22:47.000Z,284.34
2022-10-20T15:24:19.000Z,284.4
2022-10-20T15:26:25.000Z,284.34
2022-10-20T15:27:51.000Z,284.34
2022-10-20T15:29:57.000Z,284.34
2022-10-20T15:31:24.000Z,284.4
2022-10-20T15:33:30.000Z,284.34
2022-10-20T15:34:57.000Z,284.34
2022-10-20T15:37:03.000Z,284.34
2022-10-20T15:38:29.000Z,284.27
2022-10-20T15:40:35.000Z,284.27
2022-10-20T15:43:26.000Z,284.27
2022-10-20T15:44:53.000Z,284.27
2022-10-20T15:46:59.000Z,284.27
2022-10-20T15:48:25.000Z,284.27
2022-10-20T15:50:32.000Z,284.27
2022-10-20T15:51:58.000Z,284.27
2022-10-20T15:54:04.000Z,284.21
2022-10-20T15:55:31.000Z,284.21
2022-10-20T15:57:37.000Z,284.21
2022-10-20T16:01:10.000Z,284.21
2022-10-20T16:02:37.000Z,284.21
2022-10-20T16:04:43.000Z,284.21
2022-10-20T16:06:10.000Z,284.21
2022-10-20T16:08:16.000Z,284.21
2022-10-20T16:09:42.000Z,284.21
2022-10-20T16:11:48.000Z,284.21
2022-10-20T16:13:15.000Z,284.21
2022-10-20T16:15:21.000Z,284.21
2022-10-20T16:16:54.000Z,284.21
2022-10-20T16:19:04.000Z,284.15
2022-10-20T16:21:55.000Z,284.21
2022-10-20T16:23:22.000Z,284.21
2022-10-20T16:25:28.000Z,284.15
2022-10-20T16:26:54.000Z,284.15
2022-10-20T16:29:00.000Z,284.15
2022-10-20T16:30:27.000Z,284.15
2022-10-20T16:32:33.000Z,284.15
2022-10-20T16:34:00.000Z,284.15
2022-10-20T16:37:32.000Z,284.15
2022-10-20T16:39:39.000Z,284.09
2022-10-20T16:41:05.000Z,284.09
2022-10-20T16:43:11.000Z,284.09
2022-10-20T16:44:38.000Z,284.09
2022-10-20T16:46:44.000Z,284.09
2022-10-20T16:48:10.000Z,284.09
2022-10-20T16:50:16.000Z,284.09
2022-10-20T16:51:43.000Z,284.09
2022-10-20T16:53:49.000Z,284.09
2022-10-20T16:55:15.000Z,284.09
2022-10-20T16:57:22.000Z,284.09
2022-10-20T17:00:13.000Z,284.09
2022-10-20T17:01:39.000Z,284.02
2022-10-20T17:03:45.000Z,284.02
2022-10-20T17:05:12.000Z,284.09
2022-10-20T17:07:18.000Z,284.02
2022-10-20T17:08:44.000Z,284.09
2022-10-20T17:10:51.000Z,284.02
2022-10-20T17:12:17.000Z,284.02
2022-10-20T17:14:23.000Z,284.02
2022-10-20T17:15:50.000Z,284.02
2022-10-20T17:17:56.000Z,284.02
2022-10-20T17:19:22.000Z,284.02
2022-10-20T17:21:28.000Z,284.02
2022-10-20T17:22:55.000Z,284.02
2022-10-20T17:25:01.000Z,284.02
2022-10-20T17:26:27.000Z,284.02
2022-10-20T17:28:33.000Z,284.02
2022-10-20T17:30:00.000Z,284.02
2022-10-20T17:32:06.000Z,284.02
2022-10-20T17:33:33.000Z,283.96
2022-10-20T17:35:39.000Z,284.02
2022-10-20T17:38:30.000Z,283.96
2022-10-20T17:39:56.000Z,284.02
2022-10-20T17:42:02.000Z,284.02
2022-10-20T17:43:29.000Z,284.02
2022-10-20T17:45:35.000Z,284.02
2022-10-20T17:47:02.000Z,284.02
2022-10-20T17:49:08.000Z,284.02
2022-10-20T17:50:35.000Z,284.02
2022-10-20T17:52:41.000Z,284.02
2022-10-20T17:54:07.000Z,284.02
2022-10-20T17:56:14.000Z,284.02
2022-10-20T17:57:40.000Z,284.02
2022-10-20T17:59:46.000Z,284.02
2022-10-20T18:01:19.000Z,284.02
2022-10-20T18:03:25.000Z,284.02
2022-10-20T18:04:52.000Z,284.02
2022-10-20T18:06:58.000Z,284.02
2022-10-20T18:08:25.000Z,284.02
2022-10-20T18:10:31.000Z,284.02
2022-10-20T18:11:57.000Z,284.02
2022-10-20T18:14:03.000Z,284.09
2022-10-20T18:16:55.000Z,284.15
2022-10-20T18:18:21.000Z,284.15
2022-10-20T18:20:27.000Z,284.15
2022-10-20T18:21:58.000Z,284.21
2022-10-20T18:24:04.000Z,284.27
2022-10-20T18:25:31.000Z,284.27
2022-10-20T18:27:37.000Z,284.34
2022-10-20T18:29:03.000Z,284.34
2022-10-20T18:31:09.000Z,284.34
2022-10-20T18:32:36.000Z,284.4
2022-10-20T18:34:43.000Z,284.4
2022-10-20T18:36:09.000Z,284.4
2022-10-20T18:38:15.000Z,284.4
2022-10-20T18:39:42.000Z,284.4
2022-10-20T18:41:48.000Z,284.34
2022-10-20T18:43:15.000Z,284.27
2022-10-20T18:45:21.000Z,284.34
2022-10-20T18:46:50.000Z,284.34
2022-10-20T18:48:56.000Z,284.4
2022-10-20T18:50:23.000Z,284.4
2022-10-20T18:52:29.000Z,284.4
2022-10-20T18:55:20.000Z,284.34
2022-10-20T18:56:46.000Z,284.34
2022-10-20T18:58:52.000Z,284.4
2022-10-20T19:00:19.000Z,284.4
2022-10-20T19:02:25.000Z,284.4
2022-10-20T19:03:51.000Z,284.34
2022-10-20T19:05:58.000Z,284.34
2022-10-20T19:07:24.000Z,284.34
2022-10-20T19:09:30.000Z,284.34
2022-10-20T19:10:57.000Z,284.34
2022-10-20T19:13:03.000Z,284.34
2022-10-20T19:14:29.000Z,284.4
2022-10-20T19:16:35.000Z,284.4
2022-10-20T19:18:02.000Z,284.4
2022-10-20T19:20:08.000Z,284.27
2022-10-20T19:21:35.000Z,284.27
2022-10-20T19:23:41.000Z,284.27
2022-10-20T19:25:07.000Z,284.27
2022-10-20T19:27:13.000Z,284.27
2022-10-20T19:28:51.000Z,284.21
2022-10-20T19:31:02.000Z,284.27
2022-10-20T19:34:03.000Z,284.34
2022-10-20T19:35:29.000Z,284.34
2022-10-20T19:37:35.000Z,284.4
2022-10-20T19:39:02.000Z,284.4
2022-10-20T19:41:08.000Z,284.34
2022-10-20T19:42:34.000Z,284.34
2022-10-20T19:44:41.000Z,284.27
2022-10-20T19:46:07.000Z,284.34
2022-10-20T19:48:14.000Z,284.34
2022-10-20T19:49:40.000Z,284.34
2022-10-20T19:51:46.000Z,284.27
2022-10-20T19:53:13.000Z,284.27
2022-10-20T19:55:19.000Z,284.27
2022-10-20T19:56:45.000Z,284.21
2022-10-20T19:58:51.000Z,284.27
2022-10-20T20:00:18.000Z,284.27
2022-10-20T20:02:24.000Z,284.34
2022-10-20T20:03:51.000Z,284.34
2022-10-20T20:05:57.000Z,284.4
2022-10-20T20:07:23.000Z,284.4
2022-10-20T20:09:30.000Z,284.46
2022-10-20T20:12:21.000Z,284.59
2022-10-20T20:13:47.000Z,284.59
2022-10-20T20:15:53.000Z,284.59
2022-10-20T20:17:20.000Z,284.71
2022-10-20T20:19:26.000Z,284.65
2022-10-20T20:20:53.000Z,284.65
2022-10-20T20:22:59.000Z,284.65
2022-10-20T20:24:25.000Z,284.59
2022-10-20T20:26:31.000Z,284.65
2022-10-20T20:27:58.000Z,284.59
2022-10-20T20:30:04.000Z,284.59
2022-10-20T20:31:30.000Z,284.65
2022-10-20T20:33:36.000Z,284.65
2022-10-20T20:35:03.000Z,284.71
2022-10-20T20:37:09.000Z,284.65
2022-10-20T20:38:35.000Z,284.65
2022-10-20T20:40:42.000Z,284.65
2022-10-20T20:42:08.000Z,284.59
2022-10-20T20:44:14.000Z,284.59
2022-10-20T20:45:41.000Z,284.65
2022-10-20T20:47:48.000Z,284.59
2022-10-20T20:50:39.000Z,284.65
2022-10-20T20:52:06.000Z,284.59
2022-10-20T20:54:12.000Z,284.59
2022-10-20T20:55:38.000Z,284.59
2022-10-20T20:57:45.000Z,284.65
2022-10-20T20:59:11.000Z,284.65
2022-10-20T21:01:17.000Z,284.59
2022-10-20T21:02:44.000Z,284.59
2022-10-20T21:04:50.000Z,284.59
2022-10-20T21:06:16.000Z,284.59
2022-10-20T21:08:23.000Z,284.59
2022-10-20T21:09:49.000Z,284.59
2022-10-20T21:11:55.000Z,284.59
2022-10-20T21:13:22.000Z,284.59
2022-10-20T21:15:28.000Z,284.52
2022-10-20T21:16:55.000Z,284.52
2022-10-20T21:19:01.000Z,284.52
2022-10-20T21:20:27.000Z,284.52
2022-10-20T21:22:34.000Z,284.46
2022-10-20T21:24:01.000Z,284.46
2022-10-20T21:26:07.000Z,284.46
2022-10-20T21:28:58.000Z,284.46
2022-10-20T21:30:25.000Z,284.46
2022-10-20T21:32:31.000Z,284.4
2022-10-20T21:33:57.000Z,284.4
2022-10-20T21:36:03.000Z,284.4
2022-10-20T21:37:30.000Z,284.4
2022-10-20T21:39:36.000Z,284.34
2022-10-20T21:41:03.000Z,284.34
2022-10-20T21:43:09.000Z,284.34
2022-10-20T21:44:35.000Z,284.34
2022-10-20T21:46:41.000Z,284.27
2022-10-20T21:48:08.000Z,284.34
2022-10-20T21:50:14.000Z,284.27
2022-10-20T21:51:40.000Z,284.27
2022-10-20T21:53:46.000Z,284.27
2022-10-20T21:55:13.000Z,284.27
2022-10-20T21:57:19.000Z,284.21
2022-10-20T21:58:46.000Z,284.21
2022-10-20T22:00:52.000Z,284.15
2022-10-20T22:02:18.000Z,284.15
2022-10-20T22:04:24.000Z,284.15
2022-10-20T22:07:15.000Z,284.15
2022-10-20T22:08:42.000Z,284.15
2022-10-20T22:10:48.000Z,284.15
2022-10-20T22:12:15.000Z,284.21
2022-10-20T22:14:21.000Z,284.15
2022-10-20T22:15:47.000Z,284.15
2022-10-20T22:17:53.000Z,284.15
2022-10-20T22:19:20.000Z,284.15
2022-10-20T22:21:26.000Z,284.15
2022-10-20T22:22:53.000Z,284.15
2022-10-20T22:24:59.000Z,284.15
2022-10-20T22:26:25.000Z,284.15
2022-10-20T22:28:31.000Z,284.15
2022-10-20T22:29:58.000Z,284.21
2022-10-20T22:32:04.000Z,284.21
2022-10-20T22:33:30.000Z,284.21
2022-10-20T22:35:37.000Z,284.15
2022-10-20T22:37:03.000Z,284.21
2022-10-20T22:40:36.000Z,284.15
2022-10-20T22:42:42.000Z,284.15
2022-10-20T22:45:33.000Z,284.15
2022-10-20T22:46:59.000Z,284.15
2022-10-20T22:49:05.000Z,284.21
2022-10-20T22:50:32.000Z,284.15
2022-10-20T22:52:38.000Z,284.15
2022-10-20T22:54:05.000Z,284.21
2022-10-20T22:56:11.000Z,284.15
2022-10-20T22:57:37.000Z,284.21
2022-10-20T22:59:43.000Z,284.27
2022-10-20T23:01:10.000Z,284.27
2022-10-20T23:03:16.000Z,284.34
2022-10-20T23:04:43.000Z,284.27